Detall de PIREP

Printer-friendly versionPDF version

[2017/08/14 08:35:00]
Flight IATA:CT1004
Pilot Number:042
Company ICAO:CAT
Aircraft Type:B738/F
PAX:60
Departing Airport: LEBB
Destination Airport: LEIB
Alternate Airport:LEPA
Online: VATSIM
Route:PPN UM176 RETBA UM871 LASPO UZ224 VARUT
Flight Level:F330
No Slew and time accel
No pause
Crash detect
Detect pilot in Cockpit between each 30 and 45 minutes
08:35 Zero fuel Weight: 136054 Lbs, Fuel Weight: 30321 Lbs
08:35 VATSIM:LEBB 140830Z 11010KT 080V150 CAVOK 27/18 Q1013 NOSIG
08:35 VATSIM:LEIB 140830Z 06010KT 9999 SCT025 26/20 Q1018 NOSIG
08:54 Parking Brakes off
09:01 Take-off
09:01 Take off Weight: 165442 Lbs
09:01 Wind: 087º @ 010 Knots Heading: 296º
09:01 POS N43º 18´ 19´´ W002º 55´ 21´´
09:01 Flaps:5 at 162 Knots
09:01 Gear Up: 161 Knots
09:01 Flaps:4 at 151 Knots
09:01 Flaps:3 at 159 Knots
09:01 Flaps:2 at 179 Knots
09:02 Flaps:1 at 202 Knots
09:03 Flaps:0 at 212 Knots
09:16 Wind:252º@026 Knots Heading: 147º Ground Speed: 476 Knots Altitude 26099 ft
09:21 TOC
09:21 Fuel Weight: 24987 Lb
09:31 Wind:263º@025 Knots Heading: 174º Ground Speed: 463 Knots Altitude 33195 ft
09:44 TOD
09:44 Fuel Weight: 22670 Lb
09:46 Wind:240º@027 Knots Heading: 108º Ground Speed: 483 Knots Altitude 29934 ft
10:00 Flaps:1 at 246 Knots
10:00 Flaps:2 at 224 Knots
10:01 Wind:137º@006 Knots Heading: 087º Ground Speed: 241 Knots Altitude 6860 ft
10:03 Flaps:3 at 196 Knots
10:06 Flaps:4 at 174 Knots
10:06 Flaps:5 at 175 Knots
10:06 Flaps:6 at 172 Knots
10:06 Gear Down: 172 Knots
10:06 Flaps:7 at 171 Knots
10:07 Flaps:8 at 156 Knots
10:09 TouchDown:Rate -163 ft/min Speed: 152 Knots
10:10 VATSIM:LEIB 141000Z 06010KT 9999 SCT020 27/20 Q1018 NOSIG
10:10 Land
10:10 Wind:060º@010 Knots
10:10 Heading: 244º
10:10 Flight Duration: 01:09
10:10 Landing Weight: 157448 Lbs
10:10 POS N38º 52´ 17´´ E001º 22´ 10´´
10:12 Parking brakes on
10:12 Block to Block Duration: 01:18
10:12 Final Fuel: 21159 Lbls
10:12 Spent Fuel: 9162 Lbls
10:12 Flight Length: 438 NM
10:12 TOD Land Length: 138 NM

Exportar CSV

Powered by Drupal - Modified by Danger4k